sensor_id;sensor_type;location;lat;lon;timestamp;temperature;humidity
10459;DHT22;5277;48.722;8.736;2022-12-18T00:00:44;-7.70;98.70
10459;DHT22;5277;48.722;8.736;2022-12-18T00:03:16;-7.70;98.80
10459;DHT22;5277;48.722;8.736;2022-12-18T00:06:04;-7.80;98.60
10459;DHT22;5277;48.722;8.736;2022-12-18T00:08:49;-7.80;98.40
10459;DHT22;5277;48.722;8.736;2022-12-18T00:14:41;-7.90;98.30
10459;DHT22;5277;48.722;8.736;2022-12-18T00:20:01;-7.90;98.50
10459;DHT22;5277;48.722;8.736;2022-12-18T00:22:27;-8.00;98.60
10459;DHT22;5277;48.722;8.736;2022-12-18T00:24:52;-8.00;98.60
10459;DHT22;5277;48.722;8.736;2022-12-18T00:27:18;-8.00;98.80
10459;DHT22;5277;48.722;8.736;2022-12-18T00:29:44;-8.00;98.60
10459;DHT22;5277;48.722;8.736;2022-12-18T00:32:09;-8.00;98.40
10459;DHT22;5277;48.722;8.736;2022-12-18T00:34:35;-8.00;98.50
10459;DHT22;5277;48.722;8.736;2022-12-18T00:37:01;-8.00;98.50
10459;DHT22;5277;48.722;8.736;2022-12-18T00:39:26;-7.90;98.30
10459;DHT22;5277;48.722;8.736;2022-12-18T00:41:52;-8.00;98.40
10459;DHT22;5277;48.722;8.736;2022-12-18T00:44:36;-8.10;98.40
10459;DHT22;5277;48.722;8.736;2022-12-18T00:47:02;-8.10;98.20
10459;DHT22;5277;48.722;8.736;2022-12-18T00:49:27;-8.10;97.70
10459;DHT22;5277;48.722;8.736;2022-12-18T00:51:53;-8.10;97.80
10459;DHT22;5277;48.722;8.736;2022-12-18T00:54:18;-8.10;98.20
10459;DHT22;5277;48.722;8.736;2022-12-18T00:56:44;-8.20;98.00
10459;DHT22;5277;48.722;8.736;2022-12-18T00:59:10;-8.20;98.20
10459;DHT22;5277;48.722;8.736;2022-12-18T01:01:36;-8.00;98.50
10459;DHT22;5277;48.722;8.736;2022-12-18T01:04:05;-8.10;98.30
10459;DHT22;5277;48.722;8.736;2022-12-18T01:06:31;-8.10;98.10
10459;DHT22;5277;48.722;8.736;2022-12-18T01:08:57;-8.10;97.90
10459;DHT22;5277;48.722;8.736;2022-12-18T01:11:25;-8.10;98.10
10459;DHT22;5277;48.722;8.736;2022-12-18T01:13:52;-8.10;98.00
10459;DHT22;5277;48.722;8.736;2022-12-18T01:16:33;-8.10;98.00
10459;DHT22;5277;48.722;8.736;2022-12-18T01:19:25;-8.10;98.20
10459;DHT22;5277;48.722;8.736;2022-12-18T01:22:54;-8.10;98.20
10459;DHT22;5277;48.722;8.736;2022-12-18T01:29:27;-8.20;98.20
10459;DHT22;5277;48.722;8.736;2022-12-18T01:32:12;-8.20;98.10
10459;DHT22;5277;48.722;8.736;2022-12-18T01:38:16;-8.20;98.10
10459;DHT22;5277;48.722;8.736;2022-12-18T01:40:48;-8.30;98.30
10459;DHT22;5277;48.722;8.736;2022-12-18T01:43:18;-8.10;98.30
10459;DHT22;5277;48.722;8.736;2022-12-18T01:46:01;-8.10;97.80
10459;DHT22;5277;48.722;8.736;2022-12-18T01:48:42;-8.10;97.80
10459;DHT22;5277;48.722;8.736;2022-12-18T01:51:30;-8.10;97.80
10459;DHT22;5277;48.722;8.736;2022-12-18T01:53:59;-8.10;98.20
10459;DHT22;5277;48.722;8.736;2022-12-18T01:56:37;-8.10;98.30
10459;DHT22;5277;48.722;8.736;2022-12-18T01:59:05;-8.00;98.20
10459;DHT22;5277;48.722;8.736;2022-12-18T02:01:49;-8.00;97.80
10459;DHT22;5277;48.722;8.736;2022-12-18T02:04:26;-8.00;97.80
10459;DHT22;5277;48.722;8.736;2022-12-18T02:27:11;-8.30;97.50
10459;DHT22;5277;48.722;8.736;2022-12-18T02:29:51;-8.20;97.70
10459;DHT22;5277;48.722;8.736;2022-12-18T02:32:27;-8.20;97.60
10459;DHT22;5277;48.722;8.736;2022-12-18T02:35:04;-8.20;98.10
10459;DHT22;5277;48.722;8.736;2022-12-18T02:37:40;-8.20;97.70
10459;DHT22;5277;48.722;8.736;2022-12-18T02:40:17;-8.30;97.70
10459;DHT22;5277;48.722;8.736;2022-12-18T02:46:39;-8.30;97.80
10459;DHT22;5277;48.722;8.736;2022-12-18T02:57:58;-8.30;97.90
10459;DHT22;5277;48.722;8.736;2022-12-18T03:00:51;-8.30;98.00
10459;DHT22;5277;48.722;8.736;2022-12-18T03:03:44;-8.20;98.00
10459;DHT22;5277;48.722;8.736;2022-12-18T03:06:32;-8.20;98.00
10459;DHT22;5277;48.722;8.736;2022-12-18T03:09:24;-8.20;97.70
10459;DHT22;5277;48.722;8.736;2022-12-18T03:11:59;-8.20;97.70
10459;DHT22;5277;48.722;8.736;2022-12-18T03:15:04;-8.10;97.70
10459;DHT22;5277;48.722;8.736;2022-12-18T03:17:47;-8.10;97.50
10459;DHT22;5277;48.722;8.736;2022-12-18T03:20:19;-8.20;97.50
10459;DHT22;5277;48.722;8.736;2022-12-18T03:22:57;-8.10;97.70
10459;DHT22;5277;48.722;8.736;2022-12-18T03:25:36;-8.10;97.60
10459;DHT22;5277;48.722;8.736;2022-12-18T03:28:09;-8.10;97.30
10459;DHT22;5277;48.722;8.736;2022-12-18T03:30:55;-8.10;97.30
10459;DHT22;5277;48.722;8.736;2022-12-18T03:34:39;-8.10;97.50
10459;DHT22;5277;48.722;8.736;2022-12-18T03:36:31;-8.10;97.70
10459;DHT22;5277;48.722;8.736;2022-12-18T03:39:00;-8.10;97.70
10459;DHT22;5277;48.722;8.736;2022-12-18T03:41:44;-8.20;97.80
10459;DHT22;5277;48.722;8.736;2022-12-18T03:47:15;-8.20;97.50
10459;DHT22;5277;48.722;8.736;2022-12-18T03:49:50;-8.20;97.20
10459;DHT22;5277;48.722;8.736;2022-12-18T03:52:32;-8.10;97.60
10459;DHT22;5277;48.722;8.736;2022-12-18T03:55:01;-8.20;97.40
10459;DHT22;5277;48.722;8.736;2022-12-18T03:57:30;-8.20;97.50
10459;DHT22;5277;48.722;8.736;2022-12-18T04:00:00;-8.20;97.60
10459;DHT22;5277;48.722;8.736;2022-12-18T04:02:31;-8.30;97.70
10459;DHT22;5277;48.722;8.736;2022-12-18T04:05:00;-8.20;97.60
10459;DHT22;5277;48.722;8.736;2022-12-18T04:07:27;-8.20;97.60
10459;DHT22;5277;48.722;8.736;2022-12-18T04:09:58;-8.20;97.60
10459;DHT22;5277;48.722;8.736;2022-12-18T04:12:26;-8.20;97.30
10459;DHT22;5277;48.722;8.736;2022-12-18T04:14:56;-8.20;97.30
10459;DHT22;5277;48.722;8.736;2022-12-18T04:17:22;-8.20;97.60
10459;DHT22;5277;48.722;8.736;2022-12-18T04:19:54;-8.20;97.80
10459;DHT22;5277;48.722;8.736;2022-12-18T04:22:22;-8.10;97.80
10459;DHT22;5277;48.722;8.736;2022-12-18T04:24:50;-8.20;97.70
10459;DHT22;5277;48.722;8.736;2022-12-18T04:27:29;-8.20;97.80
10459;DHT22;5277;48.722;8.736;2022-12-18T04:30:14;-8.20;97.80
10459;DHT22;5277;48.722;8.736;2022-12-18T04:33:22;-8.20;97.70
10459;DHT22;5277;48.722;8.736;2022-12-18T04:35:50;-8.20;97.70
10459;DHT22;5277;48.722;8.736;2022-12-18T04:38:19;-8.30;97.70
10459;DHT22;5277;48.722;8.736;2022-12-18T04:40:47;-8.30;97.80
10459;DHT22;5277;48.722;8.736;2022-12-18T04:43:16;-8.30;98.10
10459;DHT22;5277;48.722;8.736;2022-12-18T04:45:47;-8.30;98.00
10459;DHT22;5277;48.722;8.736;2022-12-18T04:48:30;-8.40;97.90
10459;DHT22;5277;48.722;8.736;2022-12-18T04:51:24;-8.30;98.10
10459;DHT22;5277;48.722;8.736;2022-12-18T04:53:53;-8.30;97.90
10459;DHT22;5277;48.722;8.736;2022-12-18T04:56:39;-8.20;97.80
10459;DHT22;5277;48.722;8.736;2022-12-18T04:59:11;-8.40;97.60
10459;DHT22;5277;48.722;8.736;2022-12-18T05:01:37;-8.40;97.60
10459;DHT22;5277;48.722;8.736;2022-12-18T05:04:02;-8.50;97.80
10459;DHT22;5277;48.722;8.736;2022-12-18T05:06:28;-8.50;97.80
10459;DHT22;5277;48.722;8.736;2022-12-18T05:08:54;-8.40;97.80
10459;DHT22;5277;48.722;8.736;2022-12-18T05:11:19;-8.40;97.90
10459;DHT22;5277;48.722;8.736;2022-12-18T05:13:45;-8.40;97.80
10459;DHT22;5277;48.722;8.736;2022-12-18T05:16:11;-8.30;98.10
10459;DHT22;5277;48.722;8.736;2022-12-18T05:18:37;-8.30;98.40
10459;DHT22;5277;48.722;8.736;2022-12-18T05:21:03;-8.30;98.90
10459;DHT22;5277;48.722;8.736;2022-12-18T05:23:29;-8.10;99.10
10459;DHT22;5277;48.722;8.736;2022-12-18T05:26:00;-8.00;99.20
10459;DHT22;5277;48.722;8.736;2022-12-18T05:28:28;-8.00;99.40
10459;DHT22;5277;48.722;8.736;2022-12-18T05:30:56;-7.90;99.40
10459;DHT22;5277;48.722;8.736;2022-12-18T05:33:23;-7.90;99.00
10459;DHT22;5277;48.722;8.736;2022-12-18T05:35:54;-7.80;98.90
10459;DHT22;5277;48.722;8.736;2022-12-18T05:38:21;-7.70;98.60
10459;DHT22;5277;48.722;8.736;2022-12-18T05:40:48;-7.60;98.50
10459;DHT22;5277;48.722;8.736;2022-12-18T05:43:14;-7.50;98.40
10459;DHT22;5277;48.722;8.736;2022-12-18T05:45:40;-7.50;98.50
10459;DHT22;5277;48.722;8.736;2022-12-18T05:48:07;-7.40;98.60
10459;DHT22;5277;48.722;8.736;2022-12-18T05:50:40;-7.40;98.30
10459;DHT22;5277;48.722;8.736;2022-12-18T05:53:06;-7.30;98.30
10459;DHT22;5277;48.722;8.736;2022-12-18T05:55:33;-7.20;97.70
10459;DHT22;5277;48.722;8.736;2022-12-18T05:57:59;-7.20;97.50
10459;DHT22;5277;48.722;8.736;2022-12-18T06:00:25;-7.20;97.60
10459;DHT22;5277;48.722;8.736;2022-12-18T06:02:54;-7.20;98.00
10459;DHT22;5277;48.722;8.736;2022-12-18T06:05:26;-7.20;98.20
10459;DHT22;5277;48.722;8.736;2022-12-18T06:07:52;-7.20;98.30
10459;DHT22;5277;48.722;8.736;2022-12-18T06:10:21;-7.20;98.30
10459;DHT22;5277;48.722;8.736;2022-12-18T06:12:49;-7.20;98.30
10459;DHT22;5277;48.722;8.736;2022-12-18T06:15:17;-7.00;98.30
10459;DHT22;5277;48.722;8.736;2022-12-18T06:17:52;-7.00;98.20
10459;DHT22;5277;48.722;8.736;2022-12-18T06:20:21;-6.90;98.20
10459;DHT22;5277;48.722;8.736;2022-12-18T06:22:50;-6.90;98.20
10459;DHT22;5277;48.722;8.736;2022-12-18T06:25:16;-6.90;98.20
10459;DHT22;5277;48.722;8.736;2022-12-18T06:27:47;-6.90;98.20
10459;DHT22;5277;48.722;8.736;2022-12-18T06:30:14;-6.90;98.10
10459;DHT22;5277;48.722;8.736;2022-12-18T06:32:43;-6.80;98.10
10459;DHT22;5277;48.722;8.736;2022-12-18T06:35:08;-6.80;98.10
10459;DHT22;5277;48.722;8.736;2022-12-18T06:37:34;-6.80;98.00
10459;DHT22;5277;48.722;8.736;2022-12-18T06:40:00;-6.80;98.10
10459;DHT22;5277;48.722;8.736;2022-12-18T06:42:26;-6.80;98.40
10459;DHT22;5277;48.722;8.736;2022-12-18T06:44:52;-6.70;98.40
10459;DHT22;5277;48.722;8.736;2022-12-18T06:47:18;-6.70;98.40
10459;DHT22;5277;48.722;8.736;2022-12-18T06:49:43;-6.70;98.30
10459;DHT22;5277;48.722;8.736;2022-12-18T06:52:09;-6.60;98.10
10459;DHT22;5277;48.722;8.736;2022-12-18T06:54:35;-6.60;98.30
10459;DHT22;5277;48.722;8.736;2022-12-18T06:57:00;-6.60;98.50
10459;DHT22;5277;48.722;8.736;2022-12-18T06:59:26;-6.60;98.40
10459;DHT22;5277;48.722;8.736;2022-12-18T07:01:51;-6.60;98.50
10459;DHT22;5277;48.722;8.736;2022-12-18T07:04:17;-6.60;98.60
10459;DHT22;5277;48.722;8.736;2022-12-18T07:06:42;-6.60;98.90
10459;DHT22;5277;48.722;8.736;2022-12-18T07:09:08;-6.50;98.90
10459;DHT22;5277;48.722;8.736;2022-12-18T07:11:33;-6.50;98.80
10459;DHT22;5277;48.722;8.736;2022-12-18T07:13:59;-6.50;98.70
10459;DHT22;5277;48.722;8.736;2022-12-18T07:16:25;-6.50;98.70
10459;DHT22;5277;48.722;8.736;2022-12-18T07:18:52;-6.40;98.80
10459;DHT22;5277;48.722;8.736;2022-12-18T07:21:19;-6.40;98.90
10459;DHT22;5277;48.722;8.736;2022-12-18T07:23:45;-6.40;98.80
10459;DHT22;5277;48.722;8.736;2022-12-18T07:26:14;-6.40;98.90
10459;DHT22;5277;48.722;8.736;2022-12-18T07:28:41;-6.30;98.60
10459;DHT22;5277;48.722;8.736;2022-12-18T07:31:12;-6.40;98.50
10459;DHT22;5277;48.722;8.736;2022-12-18T07:33:38;-6.40;98.50
10459;DHT22;5277;48.722;8.736;2022-12-18T07:36:06;-6.40;98.60
10459;DHT22;5277;48.722;8.736;2022-12-18T07:38:32;-6.40;98.60
10459;DHT22;5277;48.722;8.736;2022-12-18T07:41:09;-6.40;98.70
10459;DHT22;5277;48.722;8.736;2022-12-18T07:43:36;-6.30;98.70
10459;DHT22;5277;48.722;8.736;2022-12-18T07:46:02;-6.30;98.60
10459;DHT22;5277;48.722;8.736;2022-12-18T07:48:28;-6.30;98.60
10459;DHT22;5277;48.722;8.736;2022-12-18T07:50:57;-6.20;98.70
10459;DHT22;5277;48.722;8.736;2022-12-18T07:53:23;-6.30;98.70
10459;DHT22;5277;48.722;8.736;2022-12-18T07:55:48;-6.30;98.80
10459;DHT22;5277;48.722;8.736;2022-12-18T07:58:14;-6.20;98.90
10459;DHT22;5277;48.722;8.736;2022-12-18T08:00:39;-6.20;98.90
10459;DHT22;5277;48.722;8.736;2022-12-18T08:03:05;-6.10;98.80
10459;DHT22;5277;48.722;8.736;2022-12-18T08:05:30;-6.10;98.90
10459;DHT22;5277;48.722;8.736;2022-12-18T08:07:58;-6.10;99.00
10459;DHT22;5277;48.722;8.736;2022-12-18T08:10:23;-6.00;98.90
10459;DHT22;5277;48.722;8.736;2022-12-18T08:12:50;-5.90;98.90
10459;DHT22;5277;48.722;8.736;2022-12-18T08:15:16;-5.90;98.90
10459;DHT22;5277;48.722;8.736;2022-12-18T08:17:42;-5.80;99.10
10459;DHT22;5277;48.722;8.736;2022-12-18T08:20:08;-5.80;98.80
10459;DHT22;5277;48.722;8.736;2022-12-18T08:22:35;-5.80;98.60
10459;DHT22;5277;48.722;8.736;2022-12-18T08:25:01;-5.80;98.60
10459;DHT22;5277;48.722;8.736;2022-12-18T08:27:26;-5.90;98.60
10459;DHT22;5277;48.722;8.736;2022-12-18T08:29:52;-5.80;98.70
10459;DHT22;5277;48.722;8.736;2022-12-18T08:32:17;-5.70;98.60
10459;DHT22;5277;48.722;8.736;2022-12-18T08:34:43;-5.70;98.60
10459;DHT22;5277;48.722;8.736;2022-12-18T08:37:09;-5.70;98.40
10459;DHT22;5277;48.722;8.736;2022-12-18T08:39:34;-5.70;98.50
10459;DHT22;5277;48.722;8.736;2022-12-18T08:42:00;-5.70;98.40
10459;DHT22;5277;48.722;8.736;2022-12-18T08:44:44;-5.70;98.70
10459;DHT22;5277;48.722;8.736;2022-12-18T08:47:09;-5.70;98.60
10459;DHT22;5277;48.722;8.736;2022-12-18T08:49:35;-5.70;98.90
10459;DHT22;5277;48.722;8.736;2022-12-18T08:52:01;-5.70;98.90
10459;DHT22;5277;48.722;8.736;2022-12-18T08:54:28;-5.60;99.20
10459;DHT22;5277;48.722;8.736;2022-12-18T08:56:53;-5.60;99.30
10459;DHT22;5277;48.722;8.736;2022-12-18T08:59:19;-5.50;99.40
10459;DHT22;5277;48.722;8.736;2022-12-18T09:01:46;-5.50;99.60
10459;DHT22;5277;48.722;8.736;2022-12-18T09:04:12;-5.30;99.50
10459;DHT22;5277;48.722;8.736;2022-12-18T09:06:38;-5.20;99.40
10459;DHT22;5277;48.722;8.736;2022-12-18T09:09:04;-5.10;99.30
10459;DHT22;5277;48.722;8.736;2022-12-18T09:11:31;-5.10;99.40
10459;DHT22;5277;48.722;8.736;2022-12-18T09:13:58;-4.90;99.30
10459;DHT22;5277;48.722;8.736;2022-12-18T09:16:26;-4.80;99.30
10459;DHT22;5277;48.722;8.736;2022-12-18T09:18:56;-4.70;99.60
10459;DHT22;5277;48.722;8.736;2022-12-18T09:21:27;-4.60;99.90
10459;DHT22;5277;48.722;8.736;2022-12-18T09:23:54;-4.50;99.90
10459;DHT22;5277;48.722;8.736;2022-12-18T09:26:21;-4.40;99.90
10459;DHT22;5277;48.722;8.736;2022-12-18T09:28:47;-4.20;99.90
10459;DHT22;5277;48.722;8.736;2022-12-18T09:31:13;-4.10;99.90
10459;DHT22;5277;48.722;8.736;2022-12-18T09:33:40;-4.10;99.90
10459;DHT22;5277;48.722;8.736;2022-12-18T09:36:08;-4.00;99.90
10459;DHT22;5277;48.722;8.736;2022-12-18T09:38:35;-3.90;99.90
10459;DHT22;5277;48.722;8.736;2022-12-18T09:43:49;-3.60;99.90
10459;DHT22;5277;48.722;8.736;2022-12-18T09:46:22;-3.50;99.90
10459;DHT22;5277;48.722;8.736;2022-12-18T09:48:52;-3.40;99.90
10459;DHT22;5277;48.722;8.736;2022-12-18T09:51:24;-3.30;99.90
10459;DHT22;5277;48.722;8.736;2022-12-18T09:53:55;-3.20;99.90
10459;DHT22;5277;48.722;8.736;2022-12-18T09:56:22;-3.10;99.90
10459;DHT22;5277;48.722;8.736;2022-12-18T09:58:59;-2.90;99.90
10459;DHT22;5277;48.722;8.736;2022-12-18T10:01:25;-2.70;99.90
10459;DHT22;5277;48.722;8.736;2022-12-18T10:03:52;-2.70;99.90
10459;DHT22;5277;48.722;8.736;2022-12-18T10:06:26;-2.50;99.90
10459;DHT22;5277;48.722;8.736;2022-12-18T10:14:30;-2.10;99.90
10459;DHT22;5277;48.722;8.736;2022-12-18T10:25:25;-1.90;99.90
10459;DHT22;5277;48.722;8.736;2022-12-18T10:27:55;-1.80;99.90
10459;DHT22;5277;48.722;8.736;2022-12-18T10:30:23;-1.80;99.90
10459;DHT22;5277;48.722;8.736;2022-12-18T10:32:49;-1.60;99.90
10459;DHT22;5277;48.722;8.736;2022-12-18T10:35:19;-1.50;99.90
10459;DHT22;5277;48.722;8.736;2022-12-18T10:40:59;-1.30;99.90
10459;DHT22;5277;48.722;8.736;2022-12-18T10:43:34;-1.20;99.90
10459;DHT22;5277;48.722;8.736;2022-12-18T10:48:30;-1.00;99.90
10459;DHT22;5277;48.722;8.736;2022-12-18T10:50:56;-0.90;99.90
10459;DHT22;5277;48.722;8.736;2022-12-18T10:53:25;-0.90;99.90
10459;DHT22;5277;48.722;8.736;2022-12-18T10:55:53;-0.80;99.90
10459;DHT22;5277;48.722;8.736;2022-12-18T10:58:36;-0.80;99.80
10459;DHT22;5277;48.722;8.736;2022-12-18T11:03:40;-0.60;99.70
10459;DHT22;5277;48.722;8.736;2022-12-18T11:06:11;-0.60;99.60
10459;DHT22;5277;48.722;8.736;2022-12-18T11:08:38;-0.60;99.60
10459;DHT22;5277;48.722;8.736;2022-12-18T11:11:14;-0.50;99.70
10459;DHT22;5277;48.722;8.736;2022-12-18T11:13:41;-0.50;99.60
10459;DHT22;5277;48.722;8.736;2022-12-18T11:16:20;-0.50;99.90
10459;DHT22;5277;48.722;8.736;2022-12-18T11:18:46;-0.50;99.80
10459;DHT22;5277;48.722;8.736;2022-12-18T11:21:12;-0.50;99.90
10459;DHT22;5277;48.722;8.736;2022-12-18T11:23:47;-0.40;99.90
10459;DHT22;5277;48.722;8.736;2022-12-18T11:26:14;-0.40;99.80
10459;DHT22;5277;48.722;8.736;2022-12-18T11:31:17;-0.40;99.70
10459;DHT22;5277;48.722;8.736;2022-12-18T11:34:08;-0.30;99.70
10459;DHT22;5277;48.722;8.736;2022-12-18T11:36:46;-0.20;99.60
10459;DHT22;5277;48.722;8.736;2022-12-18T11:42:51;0.00;99.50
10459;DHT22;5277;48.722;8.736;2022-12-18T11:44:55;0.10;99.20
10459;DHT22;5277;48.722;8.736;2022-12-18T11:47:40;0.10;99.10
10459;DHT22;5277;48.722;8.736;2022-12-18T11:50:17;0.20;99.10
10459;DHT22;5277;48.722;8.736;2022-12-18T11:52:44;0.20;99.10
10459;DHT22;5277;48.722;8.736;2022-12-18T11:55:15;0.30;99.00
10459;DHT22;5277;48.722;8.736;2022-12-18T11:58:12;0.40;98.90
10459;DHT22;5277;48.722;8.736;2022-12-18T12:01:06;0.40;98.70
10459;DHT22;5277;48.722;8.736;2022-12-18T12:07:12;0.50;98.80
10459;DHT22;5277;48.722;8.736;2022-12-18T12:09:45;0.50;98.70
10459;DHT22;5277;48.722;8.736;2022-12-18T12:15:24;0.40;98.70
10459;DHT22;5277;48.722;8.736;2022-12-18T12:23:40;0.50;98.90
10459;DHT22;5277;48.722;8.736;2022-12-18T12:26:36;0.50;99.00
10459;DHT22;5277;48.722;8.736;2022-12-18T12:31:59;0.60;98.90
10459;DHT22;5277;48.722;8.736;2022-12-18T12:39:53;0.60;99.10
10459;DHT22;5277;48.722;8.736;2022-12-18T12:42:39;0.60;99.00
10459;DHT22;5277;48.722;8.736;2022-12-18T12:45:34;0.70;99.00
10459;DHT22;5277;48.722;8.736;2022-12-18T12:48:02;0.80;98.80
10459;DHT22;5277;48.722;8.736;2022-12-18T12:50:33;0.80;98.80
10459;DHT22;5277;48.722;8.736;2022-12-18T12:53:01;0.80;98.90
10459;DHT22;5277;48.722;8.736;2022-12-18T12:55:28;0.80;98.80
10459;DHT22;5277;48.722;8.736;2022-12-18T12:58:21;0.90;98.50
10459;DHT22;5277;48.722;8.736;2022-12-18T13:06:40;0.90;98.80
10459;DHT22;5277;48.722;8.736;2022-12-18T13:09:08;0.90;98.90
10459;DHT22;5277;48.722;8.736;2022-12-18T13:11:47;1.00;99.10
10459;DHT22;5277;48.722;8.736;2022-12-18T13:19:42;1.10;99.20
10459;DHT22;5277;48.722;8.736;2022-12-18T13:22:34;1.10;99.30
10459;DHT22;5277;48.722;8.736;2022-12-18T13:25:00;1.00;99.40
10459;DHT22;5277;48.722;8.736;2022-12-18T13:40:58;0.90;99.90
10459;DHT22;5277;48.722;8.736;2022-12-18T13:48:33;0.90;99.90
10459;DHT22;5277;48.722;8.736;2022-12-18T13:51:03;0.80;99.90
10459;DHT22;5277;48.722;8.736;2022-12-18T13:53:37;0.80;99.90
10459;DHT22;5277;48.722;8.736;2022-12-18T13:56:05;0.80;99.90
10459;DHT22;5277;48.722;8.736;2022-12-18T13:58:31;0.80;99.90
10459;DHT22;5277;48.722;8.736;2022-12-18T14:00:57;0.80;99.90
10459;DHT22;5277;48.722;8.736;2022-12-18T14:03:26;0.80;99.90
10459;DHT22;5277;48.722;8.736;2022-12-18T14:06:05;0.70;99.90
10459;DHT22;5277;48.722;8.736;2022-12-18T14:08:39;0.70;99.90
10459;DHT22;5277;48.722;8.736;2022-12-18T14:11:06;0.70;99.90
10459;DHT22;5277;48.722;8.736;2022-12-18T14:13:38;0.60;99.90
10459;DHT22;5277;48.722;8.736;2022-12-18T14:16:06;0.60;99.90
10459;DHT22;5277;48.722;8.736;2022-12-18T14:21:22;0.60;99.90
10459;DHT22;5277;48.722;8.736;2022-12-18T14:23:49;0.60;99.90
10459;DHT22;5277;48.722;8.736;2022-12-18T14:26:29;0.50;99.90
10459;DHT22;5277;48.722;8.736;2022-12-18T14:28:57;0.50;99.90
10459;DHT22;5277;48.722;8.736;2022-12-18T14:31:25;0.40;99.90
10459;DHT22;5277;48.722;8.736;2022-12-18T14:33:51;0.40;99.90
10459;DHT22;5277;48.722;8.736;2022-12-18T14:36:23;0.50;99.90
10459;DHT22;5277;48.722;8.736;2022-12-18T14:38:51;0.50;99.90
10459;DHT22;5277;48.722;8.736;2022-12-18T14:41:17;0.40;99.90
10459;DHT22;5277;48.722;8.736;2022-12-18T14:43:46;0.40;99.90
10459;DHT22;5277;48.722;8.736;2022-12-18T14:46:38;0.30;99.90
10459;DHT22;5277;48.722;8.736;2022-12-18T14:49:17;0.30;99.90
10459;DHT22;5277;48.722;8.736;2022-12-18T14:51:55;0.30;99.90
10459;DHT22;5277;48.722;8.736;2022-12-18T14:54:22;0.20;99.90
10459;DHT22;5277;48.722;8.736;2022-12-18T14:59:38;0.10;99.90
10459;DHT22;5277;48.722;8.736;2022-12-18T15:02:23;0.00;99.90
10459;DHT22;5277;48.722;8.736;2022-12-18T15:05:18;0.00;99.90
10459;DHT22;5277;48.722;8.736;2022-12-18T15:07:49;-0.10;99.90
10459;DHT22;5277;48.722;8.736;2022-12-18T15:10:20;-0.20;99.90
10459;DHT22;5277;48.722;8.736;2022-12-18T15:18:12;-0.40;99.90
10459;DHT22;5277;48.722;8.736;2022-12-18T15:23:47;-0.50;99.90
10459;DHT22;5277;48.722;8.736;2022-12-18T15:26:15;-0.60;99.90
10459;DHT22;5277;48.722;8.736;2022-12-18T15:28:57;-0.60;99.90
10459;DHT22;5277;48.722;8.736;2022-12-18T15:31:28;-0.70;99.90
10459;DHT22;5277;48.722;8.736;2022-12-18T15:36:22;-0.80;99.90
10459;DHT22;5277;48.722;8.736;2022-12-18T15:38:53;-0.90;99.90
10459;DHT22;5277;48.722;8.736;2022-12-18T15:41:21;-1.00;99.90
10459;DHT22;5277;48.722;8.736;2022-12-18T15:43:49;-1.10;99.90
10459;DHT22;5277;48.722;8.736;2022-12-18T15:46:17;-1.20;99.90
10459;DHT22;5277;48.722;8.736;2022-12-18T15:48:49;-1.20;99.90
10459;DHT22;5277;48.722;8.736;2022-12-18T15:51:31;-1.20;99.90
10459;DHT22;5277;48.722;8.736;2022-12-18T15:53:59;-1.30;99.90
10459;DHT22;5277;48.722;8.736;2022-12-18T15:56:25;-1.20;99.90
10459;DHT22;5277;48.722;8.736;2022-12-18T15:59:11;-1.20;99.90
10459;DHT22;5277;48.722;8.736;2022-12-18T16:01:37;-1.20;99.90
10459;DHT22;5277;48.722;8.736;2022-12-18T16:04:03;-1.30;99.90
10459;DHT22;5277;48.722;8.736;2022-12-18T16:06:29;-1.30;99.90
10459;DHT22;5277;48.722;8.736;2022-12-18T16:08:54;-1.30;99.90
10459;DHT22;5277;48.722;8.736;2022-12-18T16:11:26;-1.40;99.90
10459;DHT22;5277;48.722;8.736;2022-12-18T16:14:22;-1.40;99.90
10459;DHT22;5277;48.722;8.736;2022-12-18T16:16:55;-1.40;99.90
10459;DHT22;5277;48.722;8.736;2022-12-18T16:19:21;-1.30;99.90
10459;DHT22;5277;48.722;8.736;2022-12-18T16:21:48;-1.30;99.90
10459;DHT22;5277;48.722;8.736;2022-12-18T16:24:22;-1.30;99.90
10459;DHT22;5277;48.722;8.736;2022-12-18T16:26:49;-1.30;99.90
10459;DHT22;5277;48.722;8.736;2022-12-18T16:29:17;-1.40;99.90
10459;DHT22;5277;48.722;8.736;2022-12-18T16:31:43;-1.30;99.90
10459;DHT22;5277;48.722;8.736;2022-12-18T16:34:23;-1.30;99.90
10459;DHT22;5277;48.722;8.736;2022-12-18T16:36:52;-1.30;99.90
10459;DHT22;5277;48.722;8.736;2022-12-18T16:39:19;-1.30;99.90
10459;DHT22;5277;48.722;8.736;2022-12-18T16:41:45;-1.20;99.90
10459;DHT22;5277;48.722;8.736;2022-12-18T16:44:11;-1.20;99.90
10459;DHT22;5277;48.722;8.736;2022-12-18T16:46:37;-1.20;99.90
10459;DHT22;5277;48.722;8.736;2022-12-18T16:49:04;-1.10;99.90
10459;DHT22;5277;48.722;8.736;2022-12-18T16:51:30;-1.20;99.90
10459;DHT22;5277;48.722;8.736;2022-12-18T16:53:56;-1.10;99.90
10459;DHT22;5277;48.722;8.736;2022-12-18T16:56:22;-1.10;99.90
10459;DHT22;5277;48.722;8.736;2022-12-18T16:58:50;-1.00;99.90
10459;DHT22;5277;48.722;8.736;2022-12-18T17:01:16;-1.10;99.90
10459;DHT22;5277;48.722;8.736;2022-12-18T17:03:41;-1.10;99.90
10459;DHT22;5277;48.722;8.736;2022-12-18T17:06:07;-1.10;99.90
10459;DHT22;5277;48.722;8.736;2022-12-18T17:08:33;-1.00;99.90
10459;DHT22;5277;48.722;8.736;2022-12-18T17:11:06;-1.00;99.90
10459;DHT22;5277;48.722;8.736;2022-12-18T17:13:32;-0.90;99.90
10459;DHT22;5277;48.722;8.736;2022-12-18T17:16:08;-0.90;99.90
10459;DHT22;5277;48.722;8.736;2022-12-18T17:18:34;-0.90;99.90
10459;DHT22;5277;48.722;8.736;2022-12-18T17:21:05;-0.90;99.90
10459;DHT22;5277;48.722;8.736;2022-12-18T17:23:31;-0.90;99.90
10459;DHT22;5277;48.722;8.736;2022-12-18T17:25:58;-0.90;99.90
10459;DHT22;5277;48.722;8.736;2022-12-18T17:28:25;-0.90;99.90
10459;DHT22;5277;48.722;8.736;2022-12-18T17:30:52;-0.90;99.90
10459;DHT22;5277;48.722;8.736;2022-12-18T17:33:21;-0.90;99.90
10459;DHT22;5277;48.722;8.736;2022-12-18T17:35:49;-0.90;99.90
10459;DHT22;5277;48.722;8.736;2022-12-18T17:38:21;-0.80;99.90
10459;DHT22;5277;48.722;8.736;2022-12-18T17:40:48;-0.90;99.90
10459;DHT22;5277;48.722;8.736;2022-12-18T17:43:19;-0.80;99.90
10459;DHT22;5277;48.722;8.736;2022-12-18T17:45:47;-0.80;99.90
10459;DHT22;5277;48.722;8.736;2022-12-18T17:56:01;-1.00;99.90
10459;DHT22;5277;48.722;8.736;2022-12-18T17:58:33;-0.90;99.90
10459;DHT22;5277;48.722;8.736;2022-12-18T18:01:05;-1.00;99.90
10459;DHT22;5277;48.722;8.736;2022-12-18T18:03:33;-0.90;99.90
10459;DHT22;5277;48.722;8.736;2022-12-18T18:06:03;-0.90;99.90
10459;DHT22;5277;48.722;8.736;2022-12-18T20:38:45;-0.20;99.90
10459;DHT22;5277;48.722;8.736;2022-12-18T20:41:18;-0.10;99.90
10459;DHT22;5277;48.722;8.736;2022-12-18T20:43:44;-0.10;99.90
10459;DHT22;5277;48.722;8.736;2022-12-18T20:46:11;-0.10;99.90
10459;DHT22;5277;48.722;8.736;2022-12-18T20:48:39;-0.10;99.90
10459;DHT22;5277;48.722;8.736;2022-12-18T20:51:07;0.00;99.90
10459;DHT22;5277;48.722;8.736;2022-12-18T20:53:34;0.00;99.90
10459;DHT22;5277;48.722;8.736;2022-12-18T20:56:04;0.00;99.90
10459;DHT22;5277;48.722;8.736;2022-12-18T20:58:30;0.00;99.90
10459;DHT22;5277;48.722;8.736;2022-12-18T21:01:16;0.00;99.90
10459;DHT22;5277;48.722;8.736;2022-12-18T21:03:43;0.10;99.90
10459;DHT22;5277;48.722;8.736;2022-12-18T21:06:10;0.00;99.90
10459;DHT22;5277;48.722;8.736;2022-12-18T21:08:37;0.00;99.90
10459;DHT22;5277;48.722;8.736;2022-12-18T21:11:26;-0.10;99.90
10459;DHT22;5277;48.722;8.736;2022-12-18T21:14:24;-0.20;99.90
10459;DHT22;5277;48.722;8.736;2022-12-18T21:16:50;-0.30;99.90
10459;DHT22;5277;48.722;8.736;2022-12-18T21:19:21;-0.30;99.90